ノヴォシビルスク の空港の天気 - METARとTAF

トルマチェヴォ空港(ノヴォシビルスク) ( UNNT / OVB ) - ロシア ノヴォシビルスク
飛行場実況気象(Metar)
観測時間09/23 04:30 OMST (09/22 22:30 UTC)
風向・風速静穏 0m/s
視程10km以上
天気現象弱い雨
全天の4割程度の雲 雲底高度 340m
全天を覆う雲 雲底高度 790m
気温3℃
湿度100%
気圧1018hPa
METARUNNT 222230Z 00000MPS 9999 -RA SCT011 OVC026 03/03 Q1018 R07/290250 R34/////// NOSIG RMK QFE754/1005
過去の天気等 Google飛行場航空写真 Wunderground天気予報

過去48時間のMETAR

飛行場予報(TAF)
発表時間: 9/23 02:00 OMST (9/22 20:00 UTC)
予報対象時間: 23日3時 OMST ~ 24日3時 OMST
風向・風速南南西 3m/s 瞬間風速 8m/s
視程8000m
天気現象弱いしゅう雨
全天の8割程度の積乱雲 雲底高度 490m
23日3時 OMST ~ 23日9時 OMST に一時的に
視程300m
天気現象弱いしゅう雨雪 霧
全天の8割程度の雲 雲底高度 60m
全天の8割程度の積乱雲 雲底高度 490m
23日12時 OMST ~ 23日15時 OMST に徐々に
風向・風速北 3m/s
TAF UNNT 222000Z 2221/2321 20003G08MPS 8000 -SHRA BKN016CB
TEMPO 2221/2303 0300 -SHRASN FG BKN002 BKN016CB
BECMG 2306/2309 35003MPS